Kyra Zafira — D5BN9 — position and weather

sailwx.info

Track history (hours):
 
Tides and Currents Weather Stations Pressure Air Temp Water Temp Dewpoint Dewpoint Depression Visibility Wind Speed Wind Dir Waves Ship Positions

Kyra Zafira

Last reported at 2017-Nov-04 22:19 UTC. Time now 2017-Dec-14 17:09 UTC.
Position N 37°27' E 025°56'.
Warning: this ship's position is 39 days out of date.

Length 229 m; draft 12.8 m.

Type: Ship. MMSI: 636015567.

Date/timePositionNaut miles runAvg speedWind from/ knotsBaromVisibWave heightAir tempDewpointWater temp
2017-Nov-04 22:19N 37°27' E 025°56'311.1
2017-Nov-04 22:00N 37°30' E 025°54'510.8
2017-Nov-04 21:30N 37°35' E 025°51'511.1
2017-Nov-04 21:00N 37°41' E 025°49'611.1
2017-Nov-04 20:30N 37°46' E 025°46'226 8.8
2017-Nov-03 18:43N 40°53' E 028°31'410.4
2017-Nov-03 18:21N 40°53' E 028°35'1310.3
2017-Nov-03 17:08N 40°55' E 028°52'1 9.5
2017-Nov-03 17:00N 40°56' E 028°53'3 5.4
2017-Nov-03 16:25N 40°58' E 028°57'4 8.2
2017-Nov-03 15:58N 41°01' E 028°60'93 9.0
2017-Nov-03 05:34N 41°56' E 030°40'110.6
2017-Nov-03 05:30N 41°56' E 030°41'9411.3
2017-Nov-02 21:12N 42°39' E 032°34'23510.6
2017-Nov-01 22:57N 44°25' E 037°23'510.6
2017-Nov-01 22:30N 44°27' E 037°29'510.0
2017-Nov-01 21:58N 44°30' E 037°35'5 9.8
2017-Nov-01 21:30N 44°32' E 037°41'510.1
2017-Nov-01 21:00N 44°35' E 037°46'5 9.3
2017-Nov-01 20:30N 44°39' E 037°51'2 3.7
2017-Nov-01 20:00N 44°41' E 037°50'0 0.1
2017-Nov-01 19:30N 44°41' E 037°51'0 0.0
2017-Nov-01 19:00N 44°41' E 037°51'0 0.0
2017-Nov-01 18:30N 44°41' E 037°51'9 0.5
2017-Nov-01 02:00N 44°33' E 037°57'0 0.0
2017-Nov-01 01:30N 44°33' E 037°57'0 0.0
2017-Nov-01 01:00N 44°33' E 037°57'0 0.0
2017-Nov-01 00:30N 44°33' E 037°57'0 0.0
2017-Nov-01 00:00N 44°33' E 037°57'0 0.0
2017-Oct-31 23:30N 44°33' E 037°57'0 0.0
2017-Oct-31 23:00N 44°33' E 037°57'0 0.0
2017-Oct-31 22:27N 44°33' E 037°57'0 0.0
2017-Oct-31 22:00N 44°33' E 037°57'0 0.0
2017-Oct-31 21:30N 44°33' E 037°57'0 0.0
2017-Oct-31 21:00N 44°33' E 037°57'0 0.0
2017-Oct-31 20:30N 44°33' E 037°57'0 0.0
2017-Oct-31 20:00N 44°33' E 037°57'0 0.0
2017-Oct-31 19:30N 44°33' E 037°57'0 0.4
2017-Oct-31 19:00N 44°33' E 037°57'0 0.2
2017-Oct-31 18:30N 44°33' E 037°57'2 4.6
2017-Oct-31 18:00N 44°34' E 037°54'510.2
2017-Oct-31 17:30N 44°39' E 037°51'4 7.3
2017-Oct-31 17:00N 44°42' E 037°49'2 3.5
2017-Oct-31 16:30N 44°44' E 037°47'0 0.4
2017-Oct-31 15:58N 44°44' E 037°47'0 0.0
2017-Oct-31 15:28N 44°44' E 037°47'0 0.0
2017-Oct-31 14:58N 44°44' E 037°47'0 0.0
2017-Oct-31 14:28N 44°44' E 037°47'0 0.0
2017-Oct-31 13:58N 44°44' E 037°47'0 0.0
2017-Oct-31 13:28N 44°44' E 037°47'0 0.0
2017-Oct-31 12:58N 44°44' E 037°47'0 0.0
2017-Oct-31 12:28N 44°44' E 037°47'0 0.0
2017-Oct-31 11:58N 44°44' E 037°47'0 0.0
2017-Oct-31 11:28N 44°44' E 037°47'0 0.0
2017-Oct-31 10:58N 44°44' E 037°47'0 0.0
2017-Oct-31 10:28N 44°44' E 037°47'0 0.0
2017-Oct-31 09:58N 44°44' E 037°47'0 0.0
2017-Oct-31 09:22N 44°44' E 037°47'0 0.0
2017-Oct-31 08:58N 44°44' E 037°47'0 0.0
2017-Oct-31 08:28N 44°44' E 037°47'0 0.0
2017-Oct-31 07:58N 44°44' E 037°47'0 0.0
2017-Oct-31 07:28N 44°44' E 037°47'0 0.0
2017-Oct-31 06:58N 44°44' E 037°47'0 0.0
2017-Oct-31 06:28N 44°44' E 037°47'0 0.0
2017-Oct-31 05:58N 44°44' E 037°47'0 0.0
2017-Oct-31 05:28N 44°44' E 037°47'0 0.0
2017-Oct-31 04:58N 44°44' E 037°47'0 0.0
2017-Oct-31 04:28N 44°44' E 037°47'0 0.0
2017-Oct-31 03:58N 44°44' E 037°47'0 0.0
2017-Oct-31 03:28N 44°44' E 037°47'0 0.0
2017-Oct-31 02:58N 44°44' E 037°47'0 0.0
2017-Oct-31 02:28N 44°44' E 037°47'0 0.0
2017-Oct-31 01:58N 44°44' E 037°47'0 0.0
2017-Oct-31 01:28N 44°44' E 037°47'0 0.0
2017-Oct-31 00:58N 44°44' E 037°47'0 0.0
2017-Oct-31 00:28N 44°44' E 037°47'0 0.0
2017-Oct-30 23:58N 44°44' E 037°47'0 0.0
2017-Oct-30 23:28N 44°44' E 037°47'0 0.0
2017-Oct-30 22:58N 44°44' E 037°47'0 0.0
2017-Oct-30 22:28N 44°44' E 037°47'0 0.0
2017-Oct-30 21:58N 44°44' E 037°47'0 0.0
2017-Oct-30 21:28N 44°44' E 037°47'0 0.0
2017-Oct-30 20:28N 44°44' E 037°47'0 0.0
2017-Oct-30 19:58N 44°44' E 037°47'0 0.0
2017-Oct-30 19:28N 44°44' E 037°47'0 0.0
2017-Oct-30 18:58N 44°44' E 037°47'0 0.0
2017-Oct-30 18:28N 44°44' E 037°47'0 0.0
2017-Oct-30 17:58N 44°44' E 037°47'0 0.0
2017-Oct-30 17:28N 44°44' E 037°47'0 0.0
2017-Oct-30 16:58N 44°44' E 037°47'0 0.0
2017-Oct-30 16:28N 44°44' E 037°47'0 0.0
2017-Oct-30 15:58N 44°44' E 037°47'0 0.0
2017-Oct-30 15:28N 44°44' E 037°47'0 0.0
2017-Oct-30 14:58N 44°44' E 037°47'0 0.0
2017-Oct-30 13:58N 44°44' E 037°47'0 0.0
2017-Oct-30 13:28N 44°44' E 037°47'0 0.0
2017-Oct-30 12:58N 44°44' E 037°47'0 0.0
2017-Oct-30 12:28N 44°44' E 037°47'0 0.0
2017-Oct-30 11:58N 44°44' E 037°47'0 0.0
2017-Oct-30 11:28N 44°44' E 037°47'0 0.0
2017-Oct-30 10:58N 44°44' E 037°47'0 0.0
2017-Oct-30 10:28N 44°44' E 037°47'0 0.0
2017-Oct-30 09:58N 44°44' E 037°47'0 0.0
2017-Oct-30 09:28N 44°44' E 037°47'0 0.0
2017-Oct-30 08:58N 44°44' E 037°47'0 0.0
2017-Oct-30 08:28N 44°44' E 037°47'0 0.0
2017-Oct-30 07:52N 44°44' E 037°47'0 0.0
2017-Oct-30 07:28N 44°44' E 037°47'0 0.0
2017-Oct-30 06:58N 44°44' E 037°47'0 0.0
2017-Oct-30 06:28N 44°44' E 037°47'0 0.0
2017-Oct-30 05:58N 44°44' E 037°47'0 0.0
2017-Oct-30 05:28N 44°44' E 037°47'0 0.0
2017-Oct-30 04:58N 44°44' E 037°47'0 0.0
2017-Oct-30 04:28N 44°44' E 037°47'0 0.0
2017-Oct-30 03:58N 44°44' E 037°47'0 0.0
2017-Oct-30 03:28N 44°44' E 037°47'0 0.0
2017-Oct-30 02:58N 44°44' E 037°47'0 0.0
2017-Oct-30 02:28N 44°44' E 037°47'0 0.0
2017-Oct-30 01:58N 44°44' E 037°47'0 0.0
2017-Oct-30 01:28N 44°44' E 037°47'0 0.0
2017-Oct-30 00:58N 44°44' E 037°47'0 0.0
2017-Oct-30 00:28N 44°44' E 037°47'0 0.0
2017-Oct-29 23:58N 44°44' E 037°47'0 0.0
2017-Oct-29 23:28N 44°44' E 037°47'0 0.0
2017-Oct-29 22:58N 44°44' E 037°47'0 0.0
2017-Oct-29 22:28N 44°44' E 037°47'0 0.0
2017-Oct-29 21:58N 44°44' E 037°47'0 0.0
2017-Oct-29 21:28N 44°44' E 037°47'0 0.0
2017-Oct-29 20:58N 44°44' E 037°47'0 0.0
2017-Oct-29 20:28N 44°44' E 037°47'0 0.0
2017-Oct-29 19:58N 44°44' E 037°47'0 0.0
2017-Oct-29 19:28N 44°44' E 037°47'0 0.0
2017-Oct-29 18:58N 44°44' E 037°47'0 0.0
2017-Oct-29 18:28N 44°44' E 037°47'0 0.0
2017-Oct-29 17:58N 44°44' E 037°47'0 0.0
2017-Oct-29 17:28N 44°44' E 037°47'0 0.0
2017-Oct-29 16:58N 44°44' E 037°47'0 0.0
2017-Oct-29 16:28N 44°44' E 037°47'0 0.0
2017-Oct-29 15:58N 44°44' E 037°47'0 0.0
2017-Oct-29 15:28N 44°44' E 037°47'0 0.0
2017-Oct-29 14:58N 44°44' E 037°47'0 0.0
2017-Oct-29 14:28N 44°44' E 037°47'0 0.0
2017-Oct-29 13:58N 44°44' E 037°47'0 0.0
2017-Oct-29 13:28N 44°44' E 037°47'0 0.0
2017-Oct-29 12:58N 44°44' E 037°47'0 0.0
2017-Oct-29 12:28N 44°44' E 037°47'0 0.0
2017-Oct-29 11:58N 44°44' E 037°47'0 0.0
2017-Oct-29 11:28N 44°44' E 037°47'0 0.0
2017-Oct-29 10:58N 44°44' E 037°47'0 0.0
2017-Oct-29 10:28N 44°44' E 037°47'0 0.0
2017-Oct-29 09:58N 44°44' E 037°47'0 0.0
2017-Oct-29 09:28N 44°44' E 037°47'0 0.0
2017-Oct-29 08:58N 44°44' E 037°47'0 0.0
2017-Oct-29 08:28N 44°44' E 037°47'0 0.0
2017-Oct-29 06:46N 44°44' E 037°47'0 0.0
2017-Oct-29 06:28N 44°44' E 037°47'0 0.0
2017-Oct-29 05:58N 44°44' E 037°47'0 0.0
2017-Oct-29 05:28N 44°44' E 037°47'0 0.0
2017-Oct-29 04:58N 44°44' E 037°47'0 0.0
2017-Oct-29 04:28N 44°44' E 037°47'0 0.0
2017-Oct-29 03:58N 44°44' E 037°47'0 0.0
2017-Oct-28 18:58N 44°44' E 037°47'0 0.0
2017-Oct-28 18:28N 44°44' E 037°47'0 0.0
2017-Oct-28 17:58N 44°44' E 037°47'0 0.0
2017-Oct-28 17:28N 44°44' E 037°47'0 0.0
2017-Oct-28 16:40N 44°44' E 037°47'0 0.0
2017-Oct-28 16:28N 44°44' E 037°47'0 0.0
2017-Oct-28 15:58N 44°44' E 037°47'0 0.0
2017-Oct-28 15:28N 44°44' E 037°47'0 0.0
2017-Oct-28 14:58N 44°44' E 037°47'0 0.0
2017-Oct-28 14:28N 44°44' E 037°47'0 0.0
2017-Oct-28 13:58N 44°44' E 037°47'0 0.0
2017-Oct-28 13:28N 44°44' E 037°47'0 0.0
2017-Oct-28 12:58N 44°44' E 037°47'0 0.0
2017-Oct-28 12:28N 44°44' E 037°47'0 0.0
2017-Oct-28 11:58N 44°44' E 037°47'0 0.0
2017-Oct-28 11:28N 44°44' E 037°47'0 0.0
2017-Oct-28 10:58N 44°44' E 037°47'0 0.0
2017-Oct-28 10:28N 44°44' E 037°47'0 0.0
2017-Oct-28 09:58N 44°44' E 037°47'0 0.0
2017-Oct-28 09:28N 44°44' E 037°47'0 0.0
2017-Oct-28 08:58N 44°44' E 037°47'0 0.0
2017-Oct-28 08:28N 44°44' E 037°47'0 0.0
2017-Oct-28 07:58N 44°44' E 037°47'0 0.0
2017-Oct-28 07:28N 44°44' E 037°47'0 0.0
2017-Oct-28 06:58N 44°44' E 037°47'0 0.0
2017-Oct-28 06:28N 44°44' E 037°47'0 0.0
2017-Oct-28 05:58N 44°44' E 037°47'0 0.0
2017-Oct-28 05:28N 44°44' E 037°47'0 0.0
2017-Oct-28 04:58N 44°44' E 037°47'0 0.0
2017-Oct-28 04:28N 44°44' E 037°47'0 0.0
2017-Oct-28 03:58N 44°44' E 037°47'0 0.0
2017-Oct-28 03:28N 44°44' E 037°47'0 0.0
2017-Oct-28 02:58N 44°44' E 037°47'0 0.0
2017-Oct-28 02:28N 44°44' E 037°47'0 0.0
2017-Oct-28 01:58N 44°44' E 037°47'0 0.0
2017-Oct-27 22:19N 44°44' E 037°47'0 0.0
2017-Oct-27 21:58N 44°44' E 037°47'0 0.0
2017-Oct-27 21:28N 44°44' E 037°47'0 0.0
2017-Oct-27 20:58N 44°44' E 037°47'0 0.0
2017-Oct-27 20:28N 44°44' E 037°47'0 0.0
2017-Oct-27 19:58N 44°44' E 037°47'0 0.0
2017-Oct-27 19:28N 44°44' E 037°47'0 0.0
2017-Oct-27 18:58N 44°44' E 037°47'0 0.0
2017-Oct-27 18:28N 44°44' E 037°47'0 0.0
2017-Oct-27 17:58N 44°44' E 037°47'0 0.0
2017-Oct-27 17:28N 44°44' E 037°47'0 0.0
2017-Oct-27 16:58N 44°44' E 037°47'0 0.0
2017-Oct-27 16:28N 44°44' E 037°47'0 0.0
2017-Oct-27 15:58N 44°44' E 037°47'0 0.0
2017-Oct-27 15:28N 44°44' E 037°47'0 0.0
2017-Oct-27 14:58N 44°44' E 037°47'0 0.0
2017-Oct-27 14:28N 44°44' E 037°47'0 0.0
2017-Oct-27 13:58N 44°44' E 037°47'0 0.0
2017-Oct-27 13:28N 44°44' E 037°47'0 0.0
2017-Oct-27 12:58N 44°44' E 037°47'0 0.0
2017-Oct-27 12:28N 44°44' E 037°47'0 0.0
2017-Oct-27 11:58N 44°44' E 037°47'0 0.0
2017-Oct-27 11:28N 44°44' E 037°47'0 0.0
2017-Oct-27 10:58N 44°44' E 037°47'0 0.0
2017-Oct-27 10:28N 44°44' E 037°47'0 0.0
2017-Oct-27 09:58N 44°44' E 037°47'0 0.0
2017-Oct-27 09:28N 44°44' E 037°47'0 0.0
2017-Oct-27 08:58N 44°44' E 037°47'0 0.0
2017-Oct-27 08:28N 44°44' E 037°47'0 0.0
2017-Oct-27 07:58N 44°44' E 037°47'0 0.0
2017-Oct-27 07:28N 44°44' E 037°47'0 0.0
2017-Oct-27 06:58N 44°44' E 037°47'0 0.0
2017-Oct-27 06:28N 44°44' E 037°47'0 0.0
2017-Oct-27 05:58N 44°44' E 037°47'0 0.0
2017-Oct-27 05:28N 44°44' E 037°47'0 0.0
2017-Oct-27 04:58N 44°44' E 037°47'0 0.0
2017-Oct-27 04:28N 44°44' E 037°47'0 0.0
2017-Oct-27 03:58N 44°44' E 037°47'0 0.0
2017-Oct-27 03:28N 44°44' E 037°47'0 0.0
2017-Oct-27 03:01N 44°44' E 037°47'0 0.0
2017-Oct-27 02:31N 44°44' E 037°47'0 0.0
2017-Oct-27 02:00N 44°44' E 037°47'0 0.0
2017-Oct-27 01:30N 44°44' E 037°47'0 0.2
2017-Oct-27 01:00N 44°44' E 037°47'1 1.6
2017-Oct-27 00:31N 44°43' E 037°48'3 5.1
2017-Oct-27 00:01N 44°41' E 037°50'3 6.2
2017-Oct-26 23:31N 44°38' E 037°52'1 2.9
2017-Oct-26 23:00N 44°37' E 037°52'2 4.7
2017-Oct-26 22:31N 44°34' E 037°53'3 5.7
2017-Oct-26 22:00N 44°34' E 037°57'0 0.2
2017-Oct-26 21:30N 44°34' E 037°57'0 0.1
2017-Oct-26 21:00N 44°34' E 037°57'0 0.1
2017-Oct-26 20:30N 44°34' E 037°57'0 0.0
2017-Oct-26 20:00N 44°34' E 037°57'0 0.1
2017-Oct-26 19:30N 44°34' E 037°57'0 0.1
2017-Oct-26 19:00N 44°34' E 037°57'0 0.0
2017-Oct-26 18:30N 44°34' E 037°57'0 0.1
2017-Oct-26 18:00N 44°34' E 037°57'0 0.0
2017-Oct-26 17:30N 44°34' E 037°57'0 0.0
2017-Oct-26 17:00N 44°34' E 037°57'0 0.1
2017-Oct-26 16:30N 44°34' E 037°57'0 0.0
2017-Oct-26 16:00N 44°34' E 037°57'0 0.1
2017-Oct-26 15:30N 44°34' E 037°57'0 0.2
2017-Oct-26 15:00N 44°34' E 037°57'0 0.1
2017-Oct-26 14:30N 44°34' E 037°57'0 0.1
2017-Oct-26 14:00N 44°34' E 037°57'0 0.1
2017-Oct-26 13:30N 44°34' E 037°57'0 0.0
2017-Oct-26 13:00N 44°34' E 037°57'0 0.1
2017-Oct-26 12:30N 44°34' E 037°57'0 0.0
2017-Oct-26 12:00N 44°34' E 037°57'0 0.0
2017-Oct-26 11:30N 44°34' E 037°57'0 0.1
2017-Oct-26 11:00N 44°34' E 037°57'0 0.1
2017-Oct-26 10:27N 44°34' E 037°57'0 0.1
2017-Oct-26 10:00N 44°34' E 037°57'0 0.1
2017-Oct-26 09:30N 44°34' E 037°57'0 0.1
2017-Oct-26 09:00N 44°34' E 037°57'0 0.3
2017-Oct-26 08:30N 44°34' E 037°57'0 0.2
2017-Oct-26 08:00N 44°34' E 037°57'0 0.1
2017-Oct-26 07:30N 44°34' E 037°57'0 0.0
2017-Oct-26 07:00N 44°34' E 037°57'0 0.1
2017-Oct-26 06:30N 44°34' E 037°57'0 0.0
2017-Oct-26 06:00N 44°34' E 037°57'0 0.1
2017-Oct-26 05:30N 44°34' E 037°57'0 0.1
2017-Oct-26 05:00N 44°34' E 037°57'0 0.0
2017-Oct-26 04:30N 44°34' E 037°57'0 0.1
2017-Oct-26 04:00N 44°34' E 037°57'0 0.0
2017-Oct-26 03:30N 44°34' E 037°57'0 0.1
2017-Oct-26 03:00N 44°34' E 037°57'0 0.0
2017-Oct-26 02:30N 44°34' E 037°57'0 0.0
2017-Oct-26 02:00N 44°34' E 037°57'0 0.0
2017-Oct-26 01:30N 44°34' E 037°57'0 0.0
2017-Oct-26 01:00N 44°34' E 037°57'0 0.0
2017-Oct-26 00:30N 44°34' E 037°57'0 0.1
2017-Oct-26 00:00N 44°34' E 037°57'0 0.0
2017-Oct-25 23:27N 44°34' E 037°57'0 0.0
2017-Oct-25 23:00N 44°34' E 037°57'0 0.0
2017-Oct-25 22:30N 44°34' E 037°57'  
Track history (hours):
 
Tides and Currents Weather Stations Pressure Air Temp Water Temp Dewpoint Dewpoint Depression Visibility Wind Speed Wind Dir Waves Ship Positions

Kyra Zafira

Last reported at 2017-Nov-04 22:19 UTC. Time now 2017-Dec-14 17:09 UTC.
Position N 37°27' E 025°56'.
Warning: this ship's position is 39 days out of date.

Length 229 m; draft 12.8 m.

Type: Ship. MMSI: 636015567.

Date/timePositionNaut miles runAvg speedWind from/ knotsBaromVisibWave heightAir tempDewpointWater temp
2017-Nov-04 22:19N 37°27' E 025°56'311.1
2017-Nov-04 22:00N 37°30' E 025°54'510.8
2017-Nov-04 21:30N 37°35' E 025°51'511.1
2017-Nov-04 21:00N 37°41' E 025°49'611.1
2017-Nov-04 20:30N 37°46' E 025°46'226 8.8
2017-Nov-03 18:43N 40°53' E 028°31'410.4
2017-Nov-03 18:21N 40°53' E 028°35'1310.3
2017-Nov-03 17:08N 40°55' E 028°52'1 9.5
2017-Nov-03 17:00N 40°56' E 028°53'3 5.4
2017-Nov-03 16:25N 40°58' E 028°57'4 8.2
2017-Nov-03 15:58N 41°01' E 028°60'93 9.0
2017-Nov-03 05:34N 41°56' E 030°40'110.6
2017-Nov-03 05:30N 41°56' E 030°41'9411.3
2017-Nov-02 21:12N 42°39' E 032°34'23510.6
2017-Nov-01 22:57N 44°25' E 037°23'510.6
2017-Nov-01 22:30N 44°27' E 037°29'510.0
2017-Nov-01 21:58N 44°30' E 037°35'5 9.8
2017-Nov-01 21:30N 44°32' E 037°41'510.1
2017-Nov-01 21:00N 44°35' E 037°46'5 9.3
2017-Nov-01 20:30N 44°39' E 037°51'2 3.7
2017-Nov-01 20:00N 44°41' E 037°50'0 0.1
2017-Nov-01 19:30N 44°41' E 037°51'0 0.0
2017-Nov-01 19:00N 44°41' E 037°51'0 0.0
2017-Nov-01 18:30N 44°41' E 037°51'9 0.5
2017-Nov-01 02:00N 44°33' E 037°57'0 0.0
2017-Nov-01 01:30N 44°33' E 037°57'0 0.0
2017-Nov-01 01:00N 44°33' E 037°57'0 0.0
2017-Nov-01 00:30N 44°33' E 037°57'0 0.0
2017-Nov-01 00:00N 44°33' E 037°57'0 0.0
2017-Oct-31 23:30N 44°33' E 037°57'0 0.0
2017-Oct-31 23:00N 44°33' E 037°57'0 0.0
2017-Oct-31 22:27N 44°33' E 037°57'0 0.0
2017-Oct-31 22:00N 44°33' E 037°57'0 0.0
2017-Oct-31 21:30N 44°33' E 037°57'0 0.0
2017-Oct-31 21:00N 44°33' E 037°57'0 0.0
2017-Oct-31 20:30N 44°33' E 037°57'0 0.0
2017-Oct-31 20:00N 44°33' E 037°57'0 0.0
2017-Oct-31 19:30N 44°33' E 037°57'0 0.4
2017-Oct-31 19:00N 44°33' E 037°57'0 0.2
2017-Oct-31 18:30N 44°33' E 037°57'2 4.6
2017-Oct-31 18:00N 44°34' E 037°54'510.2
2017-Oct-31 17:30N 44°39' E 037°51'4 7.3
2017-Oct-31 17:00N 44°42' E 037°49'2 3.5
2017-Oct-31 16:30N 44°44' E 037°47'0 0.4
2017-Oct-31 15:58N 44°44' E 037°47'0 0.0
2017-Oct-31 15:28N 44°44' E 037°47'0 0.0
2017-Oct-31 14:58N 44°44' E 037°47'0 0.0
2017-Oct-31 14:28N 44°44' E 037°47'0 0.0
2017-Oct-31 13:58N 44°44' E 037°47'0 0.0
2017-Oct-31 13:28N 44°44' E 037°47'0 0.0
2017-Oct-31 12:58N 44°44' E 037°47'0 0.0
2017-Oct-31 12:28N 44°44' E 037°47'0 0.0
2017-Oct-31 11:58N 44°44' E 037°47'0 0.0
2017-Oct-31 11:28N 44°44' E 037°47'0 0.0
2017-Oct-31 10:58N 44°44' E 037°47'0 0.0
2017-Oct-31 10:28N 44°44' E 037°47'0 0.0
2017-Oct-31 09:58N 44°44' E 037°47'0 0.0
2017-Oct-31 09:22N 44°44' E 037°47'0 0.0
2017-Oct-31 08:58N 44°44' E 037°47'0 0.0
2017-Oct-31 08:28N 44°44' E 037°47'0 0.0
2017-Oct-31 07:58N 44°44' E 037°47'0 0.0
2017-Oct-31 07:28N 44°44' E 037°47'0 0.0
2017-Oct-31 06:58N 44°44' E 037°47'0 0.0
2017-Oct-31 06:28N 44°44' E 037°47'0 0.0
2017-Oct-31 05:58N 44°44' E 037°47'0 0.0
2017-Oct-31 05:28N 44°44' E 037°47'0 0.0
2017-Oct-31 04:58N 44°44' E 037°47'0 0.0
2017-Oct-31 04:28N 44°44' E 037°47'0 0.0
2017-Oct-31 03:58N 44°44' E 037°47'0 0.0
2017-Oct-31 03:28N 44°44' E 037°47'0 0.0
2017-Oct-31 02:58N 44°44' E 037°47'0 0.0
2017-Oct-31 02:28N 44°44' E 037°47'0 0.0
2017-Oct-31 01:58N 44°44' E 037°47'0 0.0
2017-Oct-31 01:28N 44°44' E 037°47'0 0.0
2017-Oct-31 00:58N 44°44' E 037°47'0 0.0
2017-Oct-31 00:28N 44°44' E 037°47'0 0.0
2017-Oct-30 23:58N 44°44' E 037°47'0 0.0
2017-Oct-30 23:28N 44°44' E 037°47'0 0.0
2017-Oct-30 22:58N 44°44' E 037°47'0 0.0
2017-Oct-30 22:28N 44°44' E 037°47'0 0.0
2017-Oct-30 21:58N 44°44' E 037°47'0 0.0
2017-Oct-30 21:28N 44°44' E 037°47'0 0.0
2017-Oct-30 20:28N 44°44' E 037°47'0 0.0
2017-Oct-30 19:58N 44°44' E 037°47'0 0.0
2017-Oct-30 19:28N 44°44' E 037°47'0 0.0
2017-Oct-30 18:58N 44°44' E 037°47'0 0.0
2017-Oct-30 18:28N 44°44' E 037°47'0 0.0
2017-Oct-30 17:58N 44°44' E 037°47'0 0.0
2017-Oct-30 17:28N 44°44' E 037°47'0 0.0
2017-Oct-30 16:58N 44°44' E 037°47'0 0.0
2017-Oct-30 16:28N 44°44' E 037°47'0 0.0
2017-Oct-30 15:58N 44°44' E 037°47'0 0.0
2017-Oct-30 15:28N 44°44' E 037°47'0 0.0
2017-Oct-30 14:58N 44°44' E 037°47'0 0.0
2017-Oct-30 13:58N 44°44' E 037°47'0 0.0
2017-Oct-30 13:28N 44°44' E 037°47'0 0.0
2017-Oct-30 12:58N 44°44' E 037°47'0 0.0
2017-Oct-30 12:28N 44°44' E 037°47'0 0.0
2017-Oct-30 11:58N 44°44' E 037°47'0 0.0
2017-Oct-30 11:28N 44°44' E 037°47'0 0.0
2017-Oct-30 10:58N 44°44' E 037°47'0 0.0
2017-Oct-30 10:28N 44°44' E 037°47'0 0.0
2017-Oct-30 09:58N 44°44' E 037°47'0 0.0
2017-Oct-30 09:28N 44°44' E 037°47'0 0.0
2017-Oct-30 08:58N 44°44' E 037°47'0 0.0
2017-Oct-30 08:28N 44°44' E 037°47'0 0.0
2017-Oct-30 07:52N 44°44' E 037°47'0 0.0
2017-Oct-30 07:28N 44°44' E 037°47'0 0.0
2017-Oct-30 06:58N 44°44' E 037°47'0 0.0
2017-Oct-30 06:28N 44°44' E 037°47'0 0.0
2017-Oct-30 05:58N 44°44' E 037°47'0 0.0
2017-Oct-30 05:28N 44°44' E 037°47'0 0.0
2017-Oct-30 04:58N 44°44' E 037°47'0 0.0
2017-Oct-30 04:28N 44°44' E 037°47'0 0.0
2017-Oct-30 03:58N 44°44' E 037°47'0 0.0
2017-Oct-30 03:28N 44°44' E 037°47'0 0.0
2017-Oct-30 02:58N 44°44' E 037°47'0 0.0
2017-Oct-30 02:28N 44°44' E 037°47'0 0.0
2017-Oct-30 01:58N 44°44' E 037°47'0 0.0
2017-Oct-30 01:28N 44°44' E 037°47'0 0.0
2017-Oct-30 00:58N 44°44' E 037°47'0 0.0
2017-Oct-30 00:28N 44°44' E 037°47'0 0.0
2017-Oct-29 23:58N 44°44' E 037°47'0 0.0
2017-Oct-29 23:28N 44°44' E 037°47'0 0.0
2017-Oct-29 22:58N 44°44' E 037°47'0 0.0
2017-Oct-29 22:28N 44°44' E 037°47'0 0.0
2017-Oct-29 21:58N 44°44' E 037°47'0 0.0
2017-Oct-29 21:28N 44°44' E 037°47'0 0.0
2017-Oct-29 20:58N 44°44' E 037°47'0 0.0
2017-Oct-29 20:28N 44°44' E 037°47'0 0.0
2017-Oct-29 19:58N 44°44' E 037°47'0 0.0
2017-Oct-29 19:28N 44°44' E 037°47'0 0.0
2017-Oct-29 18:58N 44°44' E 037°47'0 0.0
2017-Oct-29 18:28N 44°44' E 037°47'0 0.0
2017-Oct-29 17:58N 44°44' E 037°47'0 0.0
2017-Oct-29 17:28N 44°44' E 037°47'0 0.0
2017-Oct-29 16:58N 44°44' E 037°47'0 0.0
2017-Oct-29 16:28N 44°44' E 037°47'0 0.0
2017-Oct-29 15:58N 44°44' E 037°47'0 0.0
2017-Oct-29 15:28N 44°44' E 037°47'0 0.0
2017-Oct-29 14:58N 44°44' E 037°47'0 0.0
2017-Oct-29 14:28N 44°44' E 037°47'0 0.0
2017-Oct-29 13:58N 44°44' E 037°47'0 0.0
2017-Oct-29 13:28N 44°44' E 037°47'0 0.0
2017-Oct-29 12:58N 44°44' E 037°47'0 0.0
2017-Oct-29 12:28N 44°44' E 037°47'0 0.0
2017-Oct-29 11:58N 44°44' E 037°47'0 0.0
2017-Oct-29 11:28N 44°44' E 037°47'0 0.0
2017-Oct-29 10:58N 44°44' E 037°47'0 0.0
2017-Oct-29 10:28N 44°44' E 037°47'0 0.0
2017-Oct-29 09:58N 44°44' E 037°47'0 0.0
2017-Oct-29 09:28N 44°44' E 037°47'0 0.0
2017-Oct-29 08:58N 44°44' E 037°47'0 0.0
2017-Oct-29 08:28N 44°44' E 037°47'0 0.0
2017-Oct-29 06:46N 44°44' E 037°47'0 0.0
2017-Oct-29 06:28N 44°44' E 037°47'0 0.0
2017-Oct-29 05:58N 44°44' E 037°47'0 0.0
2017-Oct-29 05:28N 44°44' E 037°47'0 0.0
2017-Oct-29 04:58N 44°44' E 037°47'0 0.0
2017-Oct-29 04:28N 44°44' E 037°47'0 0.0
2017-Oct-29 03:58N 44°44' E 037°47'0 0.0
2017-Oct-28 18:58N 44°44' E 037°47'0 0.0
2017-Oct-28 18:28N 44°44' E 037°47'0 0.0
2017-Oct-28 17:58N 44°44' E 037°47'0 0.0
2017-Oct-28 17:28N 44°44' E 037°47'0 0.0
2017-Oct-28 16:40N 44°44' E 037°47'0 0.0
2017-Oct-28 16:28N 44°44' E 037°47'0 0.0
2017-Oct-28 15:58N 44°44' E 037°47'0 0.0
2017-Oct-28 15:28N 44°44' E 037°47'0 0.0
2017-Oct-28 14:58N 44°44' E 037°47'0 0.0
2017-Oct-28 14:28N 44°44' E 037°47'0 0.0
2017-Oct-28 13:58N 44°44' E 037°47'0 0.0
2017-Oct-28 13:28N 44°44' E 037°47'0 0.0
2017-Oct-28 12:58N 44°44' E 037°47'0 0.0
2017-Oct-28 12:28N 44°44' E 037°47'0 0.0
2017-Oct-28 11:58N 44°44' E 037°47'0 0.0
2017-Oct-28 11:28N 44°44' E 037°47'0 0.0
2017-Oct-28 10:58N 44°44' E 037°47'0 0.0
2017-Oct-28 10:28N 44°44' E 037°47'0 0.0
2017-Oct-28 09:58N 44°44' E 037°47'0 0.0
2017-Oct-28 09:28N 44°44' E 037°47'0 0.0
2017-Oct-28 08:58N 44°44' E 037°47'0 0.0
2017-Oct-28 08:28N 44°44' E 037°47'0 0.0
2017-Oct-28 07:58N 44°44' E 037°47'0 0.0
2017-Oct-28 07:28N 44°44' E 037°47'0 0.0
2017-Oct-28 06:58N 44°44' E 037°47'0 0.0
2017-Oct-28 06:28N 44°44' E 037°47'0 0.0
2017-Oct-28 05:58N 44°44' E 037°47'0 0.0
2017-Oct-28 05:28N 44°44' E 037°47'0 0.0
2017-Oct-28 04:58N 44°44' E 037°47'0 0.0
2017-Oct-28 04:28N 44°44' E 037°47'0 0.0
2017-Oct-28 03:58N 44°44' E 037°47'0 0.0
2017-Oct-28 03:28N 44°44' E 037°47'0 0.0
2017-Oct-28 02:58N 44°44' E 037°47'0 0.0
2017-Oct-28 02:28N 44°44' E 037°47'0 0.0
2017-Oct-28 01:58N 44°44' E 037°47'0 0.0
2017-Oct-27 22:19N 44°44' E 037°47'0 0.0
2017-Oct-27 21:58N 44°44' E 037°47'0 0.0
2017-Oct-27 21:28N 44°44' E 037°47'0 0.0
2017-Oct-27 20:58N 44°44' E 037°47'0 0.0
2017-Oct-27 20:28N 44°44' E 037°47'0 0.0
2017-Oct-27 19:58N 44°44' E 037°47'0 0.0
2017-Oct-27 19:28N 44°44' E 037°47'0 0.0
2017-Oct-27 18:58N 44°44' E 037°47'0 0.0
2017-Oct-27 18:28N 44°44' E 037°47'0 0.0
2017-Oct-27 17:58N 44°44' E 037°47'0 0.0
2017-Oct-27 17:28N 44°44' E 037°47'0 0.0
2017-Oct-27 16:58N 44°44' E 037°47'0 0.0
2017-Oct-27 16:28N 44°44' E 037°47'0 0.0
2017-Oct-27 15:58N 44°44' E 037°47'0 0.0
2017-Oct-27 15:28N 44°44' E 037°47'0 0.0
2017-Oct-27 14:58N 44°44' E 037°47'0 0.0
2017-Oct-27 14:28N 44°44' E 037°47'0 0.0
2017-Oct-27 13:58N 44°44' E 037°47'0 0.0
2017-Oct-27 13:28N 44°44' E 037°47'0 0.0
2017-Oct-27 12:58N 44°44' E 037°47'0 0.0
2017-Oct-27 12:28N 44°44' E 037°47'0 0.0
2017-Oct-27 11:58N 44°44' E 037°47'0 0.0
2017-Oct-27 11:28N 44°44' E 037°47'0 0.0
2017-Oct-27 10:58N 44°44' E 037°47'0 0.0
2017-Oct-27 10:28N 44°44' E 037°47'0 0.0
2017-Oct-27 09:58N 44°44' E 037°47'0 0.0
2017-Oct-27 09:28N 44°44' E 037°47'0 0.0
2017-Oct-27 08:58N 44°44' E 037°47'0 0.0
2017-Oct-27 08:28N 44°44' E 037°47'0 0.0
2017-Oct-27 07:58N 44°44' E 037°47'0 0.0
2017-Oct-27 07:28N 44°44' E 037°47'0 0.0
2017-Oct-27 06:58N 44°44' E 037°47'0 0.0
2017-Oct-27 06:28N 44°44' E 037°47'0 0.0
2017-Oct-27 05:58N 44°44' E 037°47'0 0.0
2017-Oct-27 05:28N 44°44' E 037°47'0 0.0
2017-Oct-27 04:58N 44°44' E 037°47'0 0.0
2017-Oct-27 04:28N 44°44' E 037°47'0 0.0
2017-Oct-27 03:58N 44°44' E 037°47'0 0.0
2017-Oct-27 03:28N 44°44' E 037°47'0 0.0
2017-Oct-27 03:01N 44°44' E 037°47'0 0.0
2017-Oct-27 02:31N 44°44' E 037°47'0 0.0
2017-Oct-27 02:00N 44°44' E 037°47'0 0.0
2017-Oct-27 01:30N 44°44' E 037°47'0 0.2
2017-Oct-27 01:00N 44°44' E 037°47'1 1.6
2017-Oct-27 00:31N 44°43' E 037°48'3 5.1
2017-Oct-27 00:01N 44°41' E 037°50'3 6.2
2017-Oct-26 23:31N 44°38' E 037°52'1 2.9
2017-Oct-26 23:00N 44°37' E 037°52'2 4.7
2017-Oct-26 22:31N 44°34' E 037°53'3 5.7
2017-Oct-26 22:00N 44°34' E 037°57'0 0.2
2017-Oct-26 21:30N 44°34' E 037°57'0 0.1
2017-Oct-26 21:00N 44°34' E 037°57'0 0.1
2017-Oct-26 20:30N 44°34' E 037°57'0 0.0
2017-Oct-26 20:00N 44°34' E 037°57'0 0.1
2017-Oct-26 19:30N 44°34' E 037°57'0 0.1
2017-Oct-26 19:00N 44°34' E 037°57'0 0.0
2017-Oct-26 18:30N 44°34' E 037°57'0 0.1
2017-Oct-26 18:00N 44°34' E 037°57'0 0.0
2017-Oct-26 17:30N 44°34' E 037°57'0 0.0
2017-Oct-26 17:00N 44°34' E 037°57'0 0.1
2017-Oct-26 16:30N 44°34' E 037°57'0 0.0
2017-Oct-26 16:00N 44°34' E 037°57'0 0.1
2017-Oct-26 15:30N 44°34' E 037°57'0 0.2
2017-Oct-26 15:00N 44°34' E 037°57'0 0.1
2017-Oct-26 14:30N 44°34' E 037°57'0 0.1
2017-Oct-26 14:00N 44°34' E 037°57'0 0.1
2017-Oct-26 13:30N 44°34' E 037°57'0 0.0
2017-Oct-26 13:00N 44°34' E 037°57'0 0.1
2017-Oct-26 12:30N 44°34' E 037°57'0 0.0
2017-Oct-26 12:00N 44°34' E 037°57'0 0.0
2017-Oct-26 11:30N 44°34' E 037°57'0 0.1
2017-Oct-26 11:00N 44°34' E 037°57'0 0.1
2017-Oct-26 10:27N 44°34' E 037°57'0 0.1
2017-Oct-26 10:00N 44°34' E 037°57'0 0.1
2017-Oct-26 09:30N 44°34' E 037°57'0 0.1
2017-Oct-26 09:00N 44°34' E 037°57'0 0.3
2017-Oct-26 08:30N 44°34' E 037°57'0 0.2
2017-Oct-26 08:00N 44°34' E 037°57'0 0.1
2017-Oct-26 07:30N 44°34' E 037°57'0 0.0
2017-Oct-26 07:00N 44°34' E 037°57'0 0.1
2017-Oct-26 06:30N 44°34' E 037°57'0 0.0
2017-Oct-26 06:00N 44°34' E 037°57'0 0.1
2017-Oct-26 05:30N 44°34' E 037°57'0 0.1
2017-Oct-26 05:00N 44°34' E 037°57'0 0.0
2017-Oct-26 04:30N 44°34' E 037°57'0 0.1
2017-Oct-26 04:00N 44°34' E 037°57'0 0.0
2017-Oct-26 03:30N 44°34' E 037°57'0 0.1
2017-Oct-26 03:00N 44°34' E 037°57'0 0.0
2017-Oct-26 02:30N 44°34' E 037°57'0 0.0
2017-Oct-26 02:00N 44°34' E 037°57'0 0.0
2017-Oct-26 01:30N 44°34' E 037°57'0 0.0
2017-Oct-26 01:00N 44°34' E 037°57'0 0.0
2017-Oct-26 00:30N 44°34' E 037°57'0 0.1
2017-Oct-26 00:00N 44°34' E 037°57'0 0.0
2017-Oct-25 23:27N 44°34' E 037°57'0 0.0
2017-Oct-25 23:00N 44°34' E 037°57'0 0.0
2017-Oct-25 22:30N 44°34' E 037°57'  

Dump ship's entire track history